sensor_id;sensor_type;location;lat;lon;timestamp;P1;durP1;ratioP1;P2;durP2;ratioP2
72924;SDS011;61070;50.794;7.054;2022-11-20T00:00:23;33.17;;;17.05;;
72924;SDS011;61070;50.794;7.054;2022-11-20T00:02:48;30.67;;;16.10;;
72924;SDS011;61070;50.794;7.054;2022-11-20T00:05:14;39.83;;;17.13;;
72924;SDS011;61070;50.794;7.054;2022-11-20T00:07:39;32.75;;;16.30;;
72924;SDS011;61070;50.794;7.054;2022-11-20T00:10:04;35.70;;;18.85;;
72924;SDS011;61070;50.794;7.054;2022-11-20T00:12:30;31.85;;;16.35;;
72924;SDS011;61070;50.794;7.054;2022-11-20T00:14:56;35.78;;;16.40;;
72924;SDS011;61070;50.794;7.054;2022-11-20T00:17:21;35.50;;;18.13;;
72924;SDS011;61070;50.794;7.054;2022-11-20T00:19:47;41.58;;;17.85;;
72924;SDS011;61070;50.794;7.054;2022-11-20T00:22:12;33.65;;;17.65;;
72924;SDS011;61070;50.794;7.054;2022-11-20T00:24:37;36.95;;;17.60;;
72924;SDS011;61070;50.794;7.054;2022-11-20T00:27:02;31.63;;;16.90;;
72924;SDS011;61070;50.794;7.054;2022-11-20T00:29:28;34.10;;;17.33;;
72924;SDS011;61070;50.794;7.054;2022-11-20T00:31:53;31.08;;;16.95;;
72924;SDS011;61070;50.794;7.054;2022-11-20T00:34:18;33.92;;;17.08;;
72924;SDS011;61070;50.794;7.054;2022-11-20T00:36:43;28.98;;;15.73;;
72924;SDS011;61070;50.794;7.054;2022-11-20T00:39:09;33.85;;;16.38;;
72924;SDS011;61070;50.794;7.054;2022-11-20T00:41:34;34.42;;;17.05;;
72924;SDS011;61070;50.794;7.054;2022-11-20T00:43:59;35.28;;;17.25;;
72924;SDS011;61070;50.794;7.054;2022-11-20T00:46:26;35.60;;;18.55;;
72924;SDS011;61070;50.794;7.054;2022-11-20T00:48:52;35.58;;;18.55;;
72924;SDS011;61070;50.794;7.054;2022-11-20T00:51:18;32.38;;;15.95;;
72924;SDS011;61070;50.794;7.054;2022-11-20T00:53:45;32.42;;;17.08;;
72924;SDS011;61070;50.794;7.054;2022-11-20T00:56:12;28.70;;;15.85;;
72924;SDS011;61070;50.794;7.054;2022-11-20T00:58:39;28.58;;;16.42;;
72924;SDS011;61070;50.794;7.054;2022-11-20T01:01:10;29.15;;;16.00;;
72924;SDS011;61070;50.794;7.054;2022-11-20T01:03:38;29.05;;;15.88;;
72924;SDS011;61070;50.794;7.054;2022-11-20T01:06:07;30.55;;;16.02;;
72924;SDS011;61070;50.794;7.054;2022-11-20T01:08:36;27.65;;;15.27;;
72924;SDS011;61070;50.794;7.054;2022-11-20T01:11:04;30.58;;;16.23;;
72924;SDS011;61070;50.794;7.054;2022-11-20T01:13:30;31.92;;;16.52;;
72924;SDS011;61070;50.794;7.054;2022-11-20T01:16:03;28.52;;;14.73;;
72924;SDS011;61070;50.794;7.054;2022-11-20T01:18:31;29.85;;;15.65;;
72924;SDS011;61070;50.794;7.054;2022-11-20T01:21:00;28.73;;;15.45;;
72924;SDS011;61070;50.794;7.054;2022-11-20T01:23:37;30.15;;;16.02;;
72924;SDS011;61070;50.794;7.054;2022-11-20T01:26:05;28.20;;;15.07;;
72924;SDS011;61070;50.794;7.054;2022-11-20T01:28:33;27.45;;;15.27;;
72924;SDS011;61070;50.794;7.054;2022-11-20T01:30:59;32.90;;;17.05;;
72924;SDS011;61070;50.794;7.054;2022-11-20T01:33:24;33.97;;;16.08;;
72924;SDS011;61070;50.794;7.054;2022-11-20T01:35:50;28.05;;;15.15;;
72924;SDS011;61070;50.794;7.054;2022-11-20T01:38:16;34.15;;;16.20;;
72924;SDS011;61070;50.794;7.054;2022-11-20T01:40:42;33.08;;;16.58;;
72924;SDS011;61070;50.794;7.054;2022-11-20T01:43:14;29.20;;;15.88;;
72924;SDS011;61070;50.794;7.054;2022-11-20T01:51:27;31.55;;;15.88;;
72924;SDS011;61070;50.794;7.054;2022-11-20T01:54:05;27.90;;;14.73;;
72924;SDS011;61070;50.794;7.054;2022-11-20T01:59:03;33.28;;;16.80;;
72924;SDS011;61070;50.794;7.054;2022-11-20T02:01:30;32.85;;;16.73;;
72924;SDS011;61070;50.794;7.054;2022-11-20T02:03:56;28.05;;;15.77;;
72924;SDS011;61070;50.794;7.054;2022-11-20T02:06:23;30.60;;;15.55;;
72924;SDS011;61070;50.794;7.054;2022-11-20T02:08:52;29.17;;;15.73;;
72924;SDS011;61070;50.794;7.054;2022-11-20T02:11:18;27.08;;;15.05;;
72924;SDS011;61070;50.794;7.054;2022-11-20T02:13:44;29.08;;;15.95;;
72924;SDS011;61070;50.794;7.054;2022-11-20T02:16:29;31.75;;;15.13;;
72924;SDS011;61070;50.794;7.054;2022-11-20T02:18:57;28.52;;;15.38;;
72924;SDS011;61070;50.794;7.054;2022-11-20T02:21:27;28.52;;;15.60;;
72924;SDS011;61070;50.794;7.054;2022-11-20T02:24:06;27.60;;;15.43;;
72924;SDS011;61070;50.794;7.054;2022-11-20T02:26:37;30.88;;;15.73;;
72924;SDS011;61070;50.794;7.054;2022-11-20T02:29:16;28.10;;;14.93;;
72924;SDS011;61070;50.794;7.054;2022-11-20T02:31:44;29.77;;;14.70;;
72924;SDS011;61070;50.794;7.054;2022-11-20T02:34:10;32.72;;;15.65;;
72924;SDS011;61070;50.794;7.054;2022-11-20T02:36:36;30.05;;;15.45;;
72924;SDS011;61070;50.794;7.054;2022-11-20T02:39:04;30.58;;;15.60;;
72924;SDS011;61070;50.794;7.054;2022-11-20T02:41:34;31.50;;;15.65;;
72924;SDS011;61070;50.794;7.054;2022-11-20T02:44:01;29.25;;;15.25;;
72924;SDS011;61070;50.794;7.054;2022-11-20T02:46:27;26.35;;;15.18;;
72924;SDS011;61070;50.794;7.054;2022-11-20T02:48:52;27.63;;;15.23;;
72924;SDS011;61070;50.794;7.054;2022-11-20T02:51:18;28.65;;;15.38;;
72924;SDS011;61070;50.794;7.054;2022-11-20T02:53:43;31.45;;;16.15;;
72924;SDS011;61070;50.794;7.054;2022-11-20T02:56:08;29.15;;;16.50;;
72924;SDS011;61070;50.794;7.054;2022-11-20T02:58:34;33.08;;;16.63;;
72924;SDS011;61070;50.794;7.054;2022-11-20T03:00:59;28.67;;;15.40;;
72924;SDS011;61070;50.794;7.054;2022-11-20T03:03:24;29.88;;;15.20;;
72924;SDS011;61070;50.794;7.054;2022-11-20T03:05:49;29.83;;;14.88;;
72924;SDS011;61070;50.794;7.054;2022-11-20T03:08:14;36.45;;;16.08;;
72924;SDS011;61070;50.794;7.054;2022-11-20T03:10:40;28.88;;;15.68;;
72924;SDS011;61070;50.794;7.054;2022-11-20T03:13:05;28.85;;;15.65;;
72924;SDS011;61070;50.794;7.054;2022-11-20T03:15:30;30.35;;;15.85;;
72924;SDS011;61070;50.794;7.054;2022-11-20T03:17:56;34.55;;;15.10;;
72924;SDS011;61070;50.794;7.054;2022-11-20T03:20:21;34.20;;;15.88;;
72924;SDS011;61070;50.794;7.054;2022-11-20T03:22:46;33.45;;;17.50;;
72924;SDS011;61070;50.794;7.054;2022-11-20T03:25:12;30.98;;;15.95;;
72924;SDS011;61070;50.794;7.054;2022-11-20T03:27:37;29.15;;;15.20;;
72924;SDS011;61070;50.794;7.054;2022-11-20T03:30:02;32.75;;;16.33;;
72924;SDS011;61070;50.794;7.054;2022-11-20T03:32:28;32.22;;;16.27;;
72924;SDS011;61070;50.794;7.054;2022-11-20T03:34:54;29.13;;;15.38;;
72924;SDS011;61070;50.794;7.054;2022-11-20T03:37:19;27.70;;;16.42;;
72924;SDS011;61070;50.794;7.054;2022-11-20T03:39:44;35.42;;;16.55;;
72924;SDS011;61070;50.794;7.054;2022-11-20T03:42:09;29.10;;;15.10;;
72924;SDS011;61070;50.794;7.054;2022-11-20T03:44:53;32.35;;;16.30;;
72924;SDS011;61070;50.794;7.054;2022-11-20T03:47:18;29.67;;;16.05;;
72924;SDS011;61070;50.794;7.054;2022-11-20T03:49:44;30.35;;;15.90;;
72924;SDS011;61070;50.794;7.054;2022-11-20T03:52:09;34.92;;;16.70;;
72924;SDS011;61070;50.794;7.054;2022-11-20T03:54:34;33.15;;;16.67;;
72924;SDS011;61070;50.794;7.054;2022-11-20T03:57:00;28.45;;;15.73;;
72924;SDS011;61070;50.794;7.054;2022-11-20T03:59:25;32.28;;;16.60;;
72924;SDS011;61070;50.794;7.054;2022-11-20T04:01:50;34.65;;;17.75;;
72924;SDS011;61070;50.794;7.054;2022-11-20T04:04:15;29.08;;;16.02;;
72924;SDS011;61070;50.794;7.054;2022-11-20T04:06:41;30.55;;;15.77;;
72924;SDS011;61070;50.794;7.054;2022-11-20T04:09:06;30.58;;;16.48;;
72924;SDS011;61070;50.794;7.054;2022-11-20T04:11:32;30.10;;;15.80;;
72924;SDS011;61070;50.794;7.054;2022-11-20T04:13:59;30.90;;;16.25;;
72924;SDS011;61070;50.794;7.054;2022-11-20T04:16:31;30.90;;;16.08;;
72924;SDS011;61070;50.794;7.054;2022-11-20T04:18:58;30.90;;;16.05;;
72924;SDS011;61070;50.794;7.054;2022-11-20T04:21:25;30.90;;;16.60;;
72924;SDS011;61070;50.794;7.054;2022-11-20T04:23:51;33.20;;;16.55;;
72924;SDS011;61070;50.794;7.054;2022-11-20T04:26:18;33.50;;;16.05;;
72924;SDS011;61070;50.794;7.054;2022-11-20T04:28:43;31.77;;;15.88;;
72924;SDS011;61070;50.794;7.054;2022-11-20T04:31:13;31.33;;;16.95;;
72924;SDS011;61070;50.794;7.054;2022-11-20T04:33:43;32.15;;;17.00;;
72924;SDS011;61070;50.794;7.054;2022-11-20T04:36:18;32.03;;;17.10;;
72924;SDS011;61070;50.794;7.054;2022-11-20T04:38:45;34.08;;;16.83;;
72924;SDS011;61070;50.794;7.054;2022-11-20T04:41:16;31.40;;;15.73;;
72924;SDS011;61070;50.794;7.054;2022-11-20T04:43:45;34.85;;;17.13;;
72924;SDS011;61070;50.794;7.054;2022-11-20T04:46:13;32.05;;;16.95;;
72924;SDS011;61070;50.794;7.054;2022-11-20T04:48:39;31.50;;;16.23;;
72924;SDS011;61070;50.794;7.054;2022-11-20T04:51:04;33.45;;;16.92;;
72924;SDS011;61070;50.794;7.054;2022-11-20T04:53:30;37.45;;;17.02;;
72924;SDS011;61070;50.794;7.054;2022-11-20T04:56:02;33.47;;;17.77;;
72924;SDS011;61070;50.794;7.054;2022-11-20T04:58:32;33.22;;;17.80;;
72924;SDS011;61070;50.794;7.054;2022-11-20T05:01:06;31.58;;;15.82;;
72924;SDS011;61070;50.794;7.054;2022-11-20T05:03:36;30.95;;;17.17;;
72924;SDS011;61070;50.794;7.054;2022-11-20T05:06:02;35.65;;;17.83;;
72924;SDS011;61070;50.794;7.054;2022-11-20T05:08:29;36.45;;;17.55;;
72924;SDS011;61070;50.794;7.054;2022-11-20T05:11:05;32.70;;;17.20;;
72924;SDS011;61070;50.794;7.054;2022-11-20T05:13:32;34.92;;;18.45;;
72924;SDS011;61070;50.794;7.054;2022-11-20T05:16:04;30.60;;;15.48;;
72924;SDS011;61070;50.794;7.054;2022-11-20T05:18:40;31.98;;;17.00;;
72924;SDS011;61070;50.794;7.054;2022-11-20T05:21:06;32.45;;;16.25;;
72924;SDS011;61070;50.794;7.054;2022-11-20T05:23:32;31.08;;;16.38;;
72924;SDS011;61070;50.794;7.054;2022-11-20T05:25:58;31.02;;;16.45;;
72924;SDS011;61070;50.794;7.054;2022-11-20T05:28:24;34.63;;;17.25;;
72924;SDS011;61070;50.794;7.054;2022-11-20T05:30:50;37.42;;;17.83;;
72924;SDS011;61070;50.794;7.054;2022-11-20T05:33:16;31.60;;;17.20;;
72924;SDS011;61070;50.794;7.054;2022-11-20T05:35:41;36.40;;;18.42;;
72924;SDS011;61070;50.794;7.054;2022-11-20T05:38:07;34.55;;;18.55;;
72924;SDS011;61070;50.794;7.054;2022-11-20T05:40:32;36.38;;;17.85;;
72924;SDS011;61070;50.794;7.054;2022-11-20T05:42:57;35.35;;;18.42;;
72924;SDS011;61070;50.794;7.054;2022-11-20T05:45:23;35.35;;;17.95;;
72924;SDS011;61070;50.794;7.054;2022-11-20T05:47:48;40.15;;;19.02;;
72924;SDS011;61070;50.794;7.054;2022-11-20T05:50:13;38.85;;;18.77;;
72924;SDS011;61070;50.794;7.054;2022-11-20T05:52:39;35.63;;;18.25;;
72924;SDS011;61070;50.794;7.054;2022-11-20T05:55:05;34.63;;;17.67;;
72924;SDS011;61070;50.794;7.054;2022-11-20T05:57:30;36.63;;;18.27;;
72924;SDS011;61070;50.794;7.054;2022-11-20T05:59:56;38.22;;;18.75;;
72924;SDS011;61070;50.794;7.054;2022-11-20T06:02:21;37.05;;;19.83;;
72924;SDS011;61070;50.794;7.054;2022-11-20T06:04:46;42.50;;;20.02;;
72924;SDS011;61070;50.794;7.054;2022-11-20T06:07:12;37.25;;;18.52;;
72924;SDS011;61070;50.794;7.054;2022-11-20T06:09:37;39.33;;;18.88;;
72924;SDS011;61070;50.794;7.054;2022-11-20T06:12:02;34.92;;;17.88;;
72924;SDS011;61070;50.794;7.054;2022-11-20T06:14:28;40.45;;;19.05;;
72924;SDS011;61070;50.794;7.054;2022-11-20T06:16:53;35.85;;;19.25;;
72924;SDS011;61070;50.794;7.054;2022-11-20T06:19:18;34.90;;;18.17;;
72924;SDS011;61070;50.794;7.054;2022-11-20T06:21:44;39.35;;;19.00;;
72924;SDS011;61070;50.794;7.054;2022-11-20T06:24:09;36.90;;;18.30;;
72924;SDS011;61070;50.794;7.054;2022-11-20T06:26:35;38.90;;;20.20;;
72924;SDS011;61070;50.794;7.054;2022-11-20T06:29:00;37.53;;;18.60;;
72924;SDS011;61070;50.794;7.054;2022-11-20T06:31:26;38.03;;;18.10;;
72924;SDS011;61070;50.794;7.054;2022-11-20T06:33:51;39.13;;;19.77;;
72924;SDS011;61070;50.794;7.054;2022-11-20T06:36:18;32.00;;;17.90;;
72924;SDS011;61070;50.794;7.054;2022-11-20T06:38:44;34.22;;;16.45;;
72924;SDS011;61070;50.794;7.054;2022-11-20T06:41:11;34.92;;;17.15;;
72924;SDS011;61070;50.794;7.054;2022-11-20T06:43:37;32.17;;;16.50;;
72924;SDS011;61070;50.794;7.054;2022-11-20T06:46:03;30.73;;;16.73;;
72924;SDS011;61070;50.794;7.054;2022-11-20T06:48:29;32.17;;;17.13;;
72924;SDS011;61070;50.794;7.054;2022-11-20T06:50:55;26.92;;;15.43;;
72924;SDS011;61070;50.794;7.054;2022-11-20T06:53:21;37.15;;;16.23;;
72924;SDS011;61070;50.794;7.054;2022-11-20T06:55:47;31.23;;;16.88;;
72924;SDS011;61070;50.794;7.054;2022-11-20T06:58:14;32.45;;;16.25;;
72924;SDS011;61070;50.794;7.054;2022-11-20T07:00:40;27.95;;;15.43;;
72924;SDS011;61070;50.794;7.054;2022-11-20T07:03:07;29.90;;;15.82;;
72924;SDS011;61070;50.794;7.054;2022-11-20T07:05:34;29.80;;;15.05;;
72924;SDS011;61070;50.794;7.054;2022-11-20T07:08:00;33.00;;;16.90;;
72924;SDS011;61070;50.794;7.054;2022-11-20T07:10:25;31.13;;;15.57;;
72924;SDS011;61070;50.794;7.054;2022-11-20T07:12:54;32.25;;;16.67;;
72924;SDS011;61070;50.794;7.054;2022-11-20T07:15:20;32.85;;;16.50;;
72924;SDS011;61070;50.794;7.054;2022-11-20T07:17:47;31.45;;;15.65;;
72924;SDS011;61070;50.794;7.054;2022-11-20T07:20:13;32.67;;;16.88;;
72924;SDS011;61070;50.794;7.054;2022-11-20T07:22:39;30.23;;;15.52;;
72924;SDS011;61070;50.794;7.054;2022-11-20T07:25:05;33.50;;;16.58;;
72924;SDS011;61070;50.794;7.054;2022-11-20T07:27:31;34.67;;;17.00;;
72924;SDS011;61070;50.794;7.054;2022-11-20T07:29:56;33.03;;;17.20;;
72924;SDS011;61070;50.794;7.054;2022-11-20T07:32:22;30.95;;;16.40;;
72924;SDS011;61070;50.794;7.054;2022-11-20T07:34:47;32.17;;;16.98;;
72924;SDS011;61070;50.794;7.054;2022-11-20T07:37:13;35.67;;;16.83;;
72924;SDS011;61070;50.794;7.054;2022-11-20T07:39:38;32.95;;;16.23;;
72924;SDS011;61070;50.794;7.054;2022-11-20T07:42:05;29.05;;;16.15;;
72924;SDS011;61070;50.794;7.054;2022-11-20T07:44:31;35.88;;;17.30;;
72924;SDS011;61070;50.794;7.054;2022-11-20T07:46:56;33.67;;;17.95;;
72924;SDS011;61070;50.794;7.054;2022-11-20T07:49:22;32.65;;;17.83;;
72924;SDS011;61070;50.794;7.054;2022-11-20T07:51:49;34.95;;;17.90;;
72924;SDS011;61070;50.794;7.054;2022-11-20T07:54:15;33.17;;;18.27;;
72924;SDS011;61070;50.794;7.054;2022-11-20T07:56:41;33.30;;;17.63;;
72924;SDS011;61070;50.794;7.054;2022-11-20T07:59:06;38.15;;;19.00;;
72924;SDS011;61070;50.794;7.054;2022-11-20T08:01:31;38.72;;;18.17;;
72924;SDS011;61070;50.794;7.054;2022-11-20T08:03:56;35.83;;;18.85;;
72924;SDS011;61070;50.794;7.054;2022-11-20T08:06:22;33.17;;;16.75;;
72924;SDS011;61070;50.794;7.054;2022-11-20T08:08:47;34.50;;;18.42;;
72924;SDS011;61070;50.794;7.054;2022-11-20T08:11:12;34.45;;;19.08;;
72924;SDS011;61070;50.794;7.054;2022-11-20T08:13:56;41.97;;;18.20;;
72924;SDS011;61070;50.794;7.054;2022-11-20T08:16:36;34.10;;;18.98;;
72924;SDS011;61070;50.794;7.054;2022-11-20T08:19:02;35.47;;;18.33;;
72924;SDS011;61070;50.794;7.054;2022-11-20T08:21:27;34.25;;;18.10;;
72924;SDS011;61070;50.794;7.054;2022-11-20T08:23:52;35.05;;;17.70;;
72924;SDS011;61070;50.794;7.054;2022-11-20T08:26:17;34.03;;;18.23;;
72924;SDS011;61070;50.794;7.054;2022-11-20T08:28:43;38.83;;;19.13;;
72924;SDS011;61070;50.794;7.054;2022-11-20T08:31:09;39.88;;;20.23;;
72924;SDS011;61070;50.794;7.054;2022-11-20T08:33:35;39.05;;;18.75;;
72924;SDS011;61070;50.794;7.054;2022-11-20T08:36:03;41.08;;;19.75;;
72924;SDS011;61070;50.794;7.054;2022-11-20T08:38:31;40.25;;;20.27;;
72924;SDS011;61070;50.794;7.054;2022-11-20T08:41:00;40.65;;;19.42;;
72924;SDS011;61070;50.794;7.054;2022-11-20T08:43:45;41.10;;;21.15;;
72924;SDS011;61070;50.794;7.054;2022-11-20T08:46:10;48.42;;;20.83;;
72924;SDS011;61070;50.794;7.054;2022-11-20T08:48:35;39.35;;;19.08;;
72924;SDS011;61070;50.794;7.054;2022-11-20T08:51:01;35.28;;;18.58;;
72924;SDS011;61070;50.794;7.054;2022-11-20T08:53:26;39.83;;;20.25;;
72924;SDS011;61070;50.794;7.054;2022-11-20T08:55:52;43.28;;;21.48;;
72924;SDS011;61070;50.794;7.054;2022-11-20T08:58:17;41.65;;;21.20;;
72924;SDS011;61070;50.794;7.054;2022-11-20T09:00:43;54.33;;;23.83;;
72924;SDS011;61070;50.794;7.054;2022-11-20T09:03:08;49.88;;;22.85;;
72924;SDS011;61070;50.794;7.054;2022-11-20T09:05:34;50.15;;;23.77;;
72924;SDS011;61070;50.794;7.054;2022-11-20T09:07:59;45.45;;;21.27;;
72924;SDS011;61070;50.794;7.054;2022-11-20T09:10:28;43.47;;;21.55;;
72924;SDS011;61070;50.794;7.054;2022-11-20T09:12:53;42.90;;;21.45;;
72924;SDS011;61070;50.794;7.054;2022-11-20T09:15:20;42.92;;;21.20;;
72924;SDS011;61070;50.794;7.054;2022-11-20T09:17:52;48.72;;;23.95;;
72924;SDS011;61070;50.794;7.054;2022-11-20T09:20:17;45.78;;;22.42;;
72924;SDS011;61070;50.794;7.054;2022-11-20T09:22:43;43.08;;;21.35;;
72924;SDS011;61070;50.794;7.054;2022-11-20T09:25:09;40.25;;;19.92;;
72924;SDS011;61070;50.794;7.054;2022-11-20T09:27:34;42.40;;;21.98;;
72924;SDS011;61070;50.794;7.054;2022-11-20T09:30:00;46.25;;;22.00;;
72924;SDS011;61070;50.794;7.054;2022-11-20T09:32:26;50.78;;;23.23;;
72924;SDS011;61070;50.794;7.054;2022-11-20T09:34:51;55.83;;;25.15;;
72924;SDS011;61070;50.794;7.054;2022-11-20T09:37:16;45.70;;;23.33;;
72924;SDS011;61070;50.794;7.054;2022-11-20T09:39:41;64.60;;;28.52;;
72924;SDS011;61070;50.794;7.054;2022-11-20T09:42:10;48.83;;;22.80;;
72924;SDS011;61070;50.794;7.054;2022-11-20T09:53:16;50.15;;;22.58;;
72924;SDS011;61070;50.794;7.054;2022-11-20T09:55:52;47.90;;;23.75;;
72924;SDS011;61070;50.794;7.054;2022-11-20T09:58:31;41.85;;;20.60;;
72924;SDS011;61070;50.794;7.054;2022-11-20T10:01:11;39.08;;;19.73;;
72924;SDS011;61070;50.794;7.054;2022-11-20T10:06:43;38.20;;;19.15;;
72924;SDS011;61070;50.794;7.054;2022-11-20T10:14:41;42.28;;;18.92;;
72924;SDS011;61070;50.794;7.054;2022-11-20T10:17:49;38.10;;;20.13;;
72924;SDS011;61070;50.794;7.054;2022-11-20T10:20:19;39.55;;;19.63;;
72924;SDS011;61070;50.794;7.054;2022-11-20T10:23:03;38.22;;;19.55;;
72924;SDS011;61070;50.794;7.054;2022-11-20T10:25:39;38.03;;;18.55;;
72924;SDS011;61070;50.794;7.054;2022-11-20T10:30:57;33.97;;;17.80;;
72924;SDS011;61070;50.794;7.054;2022-11-20T10:33:26;35.10;;;17.27;;
72924;SDS011;61070;50.794;7.054;2022-11-20T10:38:59;42.95;;;18.45;;
72924;SDS011;61070;50.794;7.054;2022-11-20T10:41:30;29.23;;;16.55;;
72924;SDS011;61070;50.794;7.054;2022-11-20T10:46:36;36.92;;;18.23;;
72924;SDS011;61070;50.794;7.054;2022-11-20T10:49:15;33.78;;;16.98;;
72924;SDS011;61070;50.794;7.054;2022-11-20T10:54:39;33.55;;;17.17;;
72924;SDS011;61070;50.794;7.054;2022-11-20T10:57:21;33.92;;;18.20;;
72924;SDS011;61070;50.794;7.054;2022-11-20T11:00:01;36.30;;;18.23;;
72924;SDS011;61070;50.794;7.054;2022-11-20T11:02:32;42.97;;;21.05;;
72924;SDS011;61070;50.794;7.054;2022-11-20T11:07:55;50.13;;;21.55;;
72924;SDS011;61070;50.794;7.054;2022-11-20T11:10:24;41.63;;;19.63;;
72924;SDS011;61070;50.794;7.054;2022-11-20T11:12:51;45.47;;;21.95;;
72924;SDS011;61070;50.794;7.054;2022-11-20T11:15:27;40.85;;;20.73;;
72924;SDS011;61070;50.794;7.054;2022-11-20T11:17:54;40.30;;;18.40;;
72924;SDS011;61070;50.794;7.054;2022-11-20T11:20:20;37.30;;;20.13;;
72924;SDS011;61070;50.794;7.054;2022-11-20T11:25:20;38.22;;;20.50;;
72924;SDS011;61070;50.794;7.054;2022-11-20T11:27:48;36.58;;;19.27;;
72924;SDS011;61070;50.794;7.054;2022-11-20T11:30:16;37.78;;;18.70;;
72924;SDS011;61070;50.794;7.054;2022-11-20T11:32:43;41.75;;;19.83;;
72924;SDS011;61070;50.794;7.054;2022-11-20T11:35:23;39.78;;;20.38;;
72924;SDS011;61070;50.794;7.054;2022-11-20T11:38:15;42.40;;;20.48;;
72924;SDS011;61070;50.794;7.054;2022-11-20T11:40:44;37.90;;;19.85;;
72924;SDS011;61070;50.794;7.054;2022-11-20T11:43:19;39.40;;;19.27;;
72924;SDS011;61070;50.794;7.054;2022-11-20T11:46:09;37.08;;;20.13;;
72924;SDS011;61070;50.794;7.054;2022-11-20T11:48:40;42.47;;;20.10;;
72924;SDS011;61070;50.794;7.054;2022-11-20T11:51:07;38.33;;;19.23;;
72924;SDS011;61070;50.794;7.054;2022-11-20T11:53:33;39.40;;;18.67;;
72924;SDS011;61070;50.794;7.054;2022-11-20T11:56:08;39.60;;;19.30;;
72924;SDS011;61070;50.794;7.054;2022-11-20T11:58:50;37.85;;;18.33;;
72924;SDS011;61070;50.794;7.054;2022-11-20T12:01:33;39.78;;;17.38;;
72924;SDS011;61070;50.794;7.054;2022-11-20T12:07:46;37.83;;;18.35;;
72924;SDS011;61070;50.794;7.054;2022-11-20T12:10:03;39.85;;;19.38;;
72924;SDS011;61070;50.794;7.054;2022-11-20T12:12:40;38.60;;;19.95;;
72924;SDS011;61070;50.794;7.054;2022-11-20T12:15:11;35.78;;;17.48;;
72924;SDS011;61070;50.794;7.054;2022-11-20T12:17:40;40.60;;;19.83;;
72924;SDS011;61070;50.794;7.054;2022-11-20T12:20:15;38.67;;;18.65;;
72924;SDS011;61070;50.794;7.054;2022-11-20T12:22:43;38.42;;;18.77;;
72924;SDS011;61070;50.794;7.054;2022-11-20T12:25:24;35.63;;;17.27;;
72924;SDS011;61070;50.794;7.054;2022-11-20T12:30:50;37.22;;;19.30;;
72924;SDS011;61070;50.794;7.054;2022-11-20T12:36:49;37.70;;;19.65;;
72924;SDS011;61070;50.794;7.054;2022-11-20T12:39:30;38.20;;;18.30;;
72924;SDS011;61070;50.794;7.054;2022-11-20T12:45:24;36.47;;;17.48;;
72924;SDS011;61070;50.794;7.054;2022-11-20T12:48:03;32.33;;;16.50;;
72924;SDS011;61070;50.794;7.054;2022-11-20T13:07:35;36.30;;;16.65;;
72924;SDS011;61070;50.794;7.054;2022-11-20T13:10:01;34.75;;;19.02;;
72924;SDS011;61070;50.794;7.054;2022-11-20T13:12:33;41.60;;;19.10;;
72924;SDS011;61070;50.794;7.054;2022-11-20T13:15:19;36.10;;;18.05;;
72924;SDS011;61070;50.794;7.054;2022-11-20T13:17:57;36.13;;;17.25;;
72924;SDS011;61070;50.794;7.054;2022-11-20T13:20:25;37.83;;;19.38;;
72924;SDS011;61070;50.794;7.054;2022-11-20T13:22:52;38.03;;;19.33;;
72924;SDS011;61070;50.794;7.054;2022-11-20T13:25:29;40.45;;;18.67;;
72924;SDS011;61070;50.794;7.054;2022-11-20T13:27:59;34.33;;;17.45;;
72924;SDS011;61070;50.794;7.054;2022-11-20T13:30:26;34.47;;;18.70;;
72924;SDS011;61070;50.794;7.054;2022-11-20T13:32:56;33.28;;;17.55;;
72924;SDS011;61070;50.794;7.054;2022-11-20T13:40:31;29.33;;;16.35;;
72924;SDS011;61070;50.794;7.054;2022-11-20T13:45:53;34.13;;;16.05;;
72924;SDS011;61070;50.794;7.054;2022-11-20T13:48:24;33.10;;;16.10;;
72924;SDS011;61070;50.794;7.054;2022-11-20T13:56:47;34.20;;;17.13;;
72924;SDS011;61070;50.794;7.054;2022-11-20T14:02:14;32.95;;;15.18;;
72924;SDS011;61070;50.794;7.054;2022-11-20T14:04:45;31.90;;;15.05;;
72924;SDS011;61070;50.794;7.054;2022-11-20T14:07:13;28.88;;;14.82;;
72924;SDS011;61070;50.794;7.054;2022-11-20T14:09:48;32.33;;;15.23;;
72924;SDS011;61070;50.794;7.054;2022-11-20T14:12:16;29.70;;;15.10;;
72924;SDS011;61070;50.794;7.054;2022-11-20T14:14:47;34.30;;;15.35;;
72924;SDS011;61070;50.794;7.054;2022-11-20T14:17:23;28.65;;;14.57;;
72924;SDS011;61070;50.794;7.054;2022-11-20T14:19:54;30.10;;;15.17;;
72924;SDS011;61070;50.794;7.054;2022-11-20T14:22:25;33.35;;;16.95;;
72924;SDS011;61070;50.794;7.054;2022-11-20T14:27:36;32.05;;;15.35;;
72924;SDS011;61070;50.794;7.054;2022-11-20T14:30:03;28.88;;;14.70;;
72924;SDS011;61070;50.794;7.054;2022-11-20T14:32:29;32.15;;;14.82;;
72924;SDS011;61070;50.794;7.054;2022-11-20T14:34:57;29.33;;;14.02;;
72924;SDS011;61070;50.794;7.054;2022-11-20T14:37:27;27.52;;;14.52;;
72924;SDS011;61070;50.794;7.054;2022-11-20T14:39:58;30.27;;;15.23;;
72924;SDS011;61070;50.794;7.054;2022-11-20T14:42:27;31.08;;;15.55;;
72924;SDS011;61070;50.794;7.054;2022-11-20T14:44:57;26.40;;;14.70;;
72924;SDS011;61070;50.794;7.054;2022-11-20T14:47:28;29.58;;;14.75;;
72924;SDS011;61070;50.794;7.054;2022-11-20T14:49:55;28.33;;;13.98;;
72924;SDS011;61070;50.794;7.054;2022-11-20T14:52:23;30.80;;;15.38;;
72924;SDS011;61070;50.794;7.054;2022-11-20T14:54:51;31.65;;;16.08;;
72924;SDS011;61070;50.794;7.054;2022-11-20T15:02:51;28.88;;;15.50;;
72924;SDS011;61070;50.794;7.054;2022-11-20T15:05:18;25.77;;;14.48;;
72924;SDS011;61070;50.794;7.054;2022-11-20T15:07:47;31.90;;;15.95;;
72924;SDS011;61070;50.794;7.054;2022-11-20T15:10:24;31.30;;;15.30;;
72924;SDS011;61070;50.794;7.054;2022-11-20T15:12:52;26.38;;;14.95;;
72924;SDS011;61070;50.794;7.054;2022-11-20T15:15:23;35.85;;;15.95;;
72924;SDS011;61070;50.794;7.054;2022-11-20T15:17:54;33.97;;;16.70;;
72924;SDS011;61070;50.794;7.054;2022-11-20T15:20:26;44.85;;;19.50;;
72924;SDS011;61070;50.794;7.054;2022-11-20T15:22:54;40.03;;;17.80;;
72924;SDS011;61070;50.794;7.054;2022-11-20T15:25:19;37.75;;;19.35;;
72924;SDS011;61070;50.794;7.054;2022-11-20T15:27:44;37.90;;;19.77;;
72924;SDS011;61070;50.794;7.054;2022-11-20T15:30:14;38.85;;;18.63;;
72924;SDS011;61070;50.794;7.054;2022-11-20T15:32:42;35.05;;;17.63;;
72924;SDS011;61070;50.794;7.054;2022-11-20T15:35:08;27.67;;;13.93;;
72924;SDS011;61070;50.794;7.054;2022-11-20T15:37:34;23.73;;;12.05;;
72924;SDS011;61070;50.794;7.054;2022-11-20T15:40:00;20.38;;;9.60;;
72924;SDS011;61070;50.794;7.054;2022-11-20T15:42:25;18.63;;;8.20;;
72924;SDS011;61070;50.794;7.054;2022-11-20T15:44:50;16.08;;;7.40;;
72924;SDS011;61070;50.794;7.054;2022-11-20T15:47:15;18.58;;;6.75;;
72924;SDS011;61070;50.794;7.054;2022-11-20T15:49:42;21.23;;;9.27;;
72924;SDS011;61070;50.794;7.054;2022-11-20T15:52:08;18.38;;;6.35;;
72924;SDS011;61070;50.794;7.054;2022-11-20T15:54:34;18.17;;;7.40;;
72924;SDS011;61070;50.794;7.054;2022-11-20T15:56:59;11.18;;;5.32;;
72924;SDS011;61070;50.794;7.054;2022-11-20T15:59:25;11.95;;;5.20;;
72924;SDS011;61070;50.794;7.054;2022-11-20T16:01:50;20.60;;;7.78;;
72924;SDS011;61070;50.794;7.054;2022-11-20T16:04:16;21.85;;;6.90;;